Time;durP1;ratioP1;P1;durP2;ratioP2;P2;SDS_P1;SDS_P2;PMS_P1;PMS_P2;Temp;Humidity;BMP_temperature;BMP_pressure;BME280_temperature;BME280_humidity;BME280_pressure;Samples;Min_cycle;Max_cycle;Signal;HPM_P1;HPM_P2
2023/08/31 00:02:06;;;;;;;10.10;5.30;;;;;;;21.34;100.00;98874.95;109431;1251;59044;-74
2023/08/31 00:04:33;;;;;;;14.30;5.00;;;;;;;21.33;100.00;98873.11;109457;1251;74646;-74
2023/08/31 00:07:01;;;;;;;12.80;5.20;;;;;;;21.32;100.00;98875.15;109389;1251;71528;-74
2023/08/31 00:09:31;;;;;;;10.60;5.50;;;;;;;21.31;100.00;98873.77;109414;1251;73248;-74
2023/08/31 00:12:01;;;;;;;11.50;5.70;;;;;;;21.30;100.00;98881.02;109406;1251;60573;-74
2023/08/31 00:14:29;;;;;;;12.50;5.70;;;;;;;21.28;100.00;98874.97;109480;1251;59016;-74
2023/08/31 00:16:57;;;;;;;17.10;6.50;;;;;;;21.26;100.00;98872.96;109406;1251;73874;-74
2023/08/31 00:19:25;;;;;;;7.90;5.10;;;;;;;21.26;100.00;98870.17;109461;1254;69868;-74
2023/08/31 00:21:52;;;;;;;7.80;5.20;;;;;;;21.24;100.00;98871.76;109447;1253;72691;-74
2023/08/31 00:24:21;;;;;;;7.50;4.70;;;;;;;21.22;100.00;98868.04;109412;1251;60255;-74
2023/08/31 00:26:51;;;;;;;8.40;5.40;;;;;;;21.20;100.00;98868.59;109474;1251;60085;-74
2023/08/31 00:29:19;;;;;;;8.00;5.10;;;;;;;21.17;100.00;98867.77;109414;1251;74901;-74
2023/08/31 00:31:48;;;;;;;8.20;5.20;;;;;;;21.13;100.00;98864.71;109443;1251;71120;-74
2023/08/31 00:34:17;;;;;;;8.70;5.30;;;;;;;21.09;100.00;98859.68;109406;1253;72865;-74
2023/08/31 00:36:44;;;;;;;9.10;4.80;;;;;;;21.06;100.00;98852.10;109379;1252;59411;-73
2023/08/31 00:39:12;;;;;;;13.70;5.90;;;;;;;21.04;100.00;98850.36;109468;1251;58900;-74
2023/08/31 00:41:39;;;;;;;12.50;4.80;;;;;;;21.03;100.00;98846.16;109417;1251;74640;-73
2023/08/31 00:44:07;;;;;;;9.90;5.00;;;;;;;21.02;100.00;98845.00;109425;1251;70754;-74
2023/08/31 00:46:34;;;;;;;14.20;5.10;;;;;;;21.01;100.00;98846.89;109411;1251;71864;-74
2023/08/31 00:49:03;;;;;;;12.00;4.90;;;;;;;20.99;100.00;98851.69;109408;1253;59511;-73
2023/08/31 00:51:32;;;;;;;15.60;4.90;;;;;;;20.97;100.00;98857.52;109192;1251;283565;-74
2023/08/31 00:53:59;;;;;;;10.70;4.90;;;;;;;20.95;100.00;98855.36;109434;1252;73461;-73
2023/08/31 00:56:27;;;;;;;10.00;4.60;;;;;;;20.94;100.00;98852.48;109392;1251;69882;-73
2023/08/31 00:58:55;;;;;;;11.60;5.20;;;;;;;20.92;100.00;98848.31;109405;1252;71463;-74
2023/08/31 01:01:32;;;;;;;16.00;4.40;;;;;;;20.91;100.00;98849.89;109434;1252;60033;-74
2023/08/31 01:04:07;;;;;;;8.30;4.50;;;;;;;20.89;100.00;98853.42;109452;1251;60721;-73
2023/08/31 01:06:44;;;;;;;6.60;4.20;;;;;;;20.87;100.00;98850.74;109386;1251;74610;-74
2023/08/31 01:09:11;;;;;;;14.80;4.80;;;;;;;20.86;100.00;98846.61;109474;1251;70776;-74
2023/08/31 01:11:49;;;;;;;9.00;4.50;;;;;;;20.85;100.00;98841.17;109396;1253;72720;-74
2023/08/31 01:14:19;;;;;;;11.70;4.70;;;;;;;20.84;100.00;98840.18;109408;1251;61149;-73
2023/08/31 01:16:49;;;;;;;15.60;4.40;;;;;;;20.84;100.00;98842.17;109138;1251;60507;-74
2023/08/31 01:19:44;;;;;;;10.80;4.20;;;;;;;20.81;100.00;98842.94;109362;1254;74696;-74
2023/08/31 01:22:17;;;;;;;9.10;4.00;;;;;;;20.77;100.00;98843.02;109389;1251;70823;-74
2023/08/31 01:24:46;;;;;;;7.00;4.60;;;;;;;20.75;100.00;98844.48;109242;1251;73091;-74
2023/08/31 01:27:17;;;;;;;13.00;4.90;;;;;;;20.73;100.00;98843.80;109428;1252;59037;-73
2023/08/31 01:29:45;;;;;;;10.70;4.70;;;;;;;20.70;100.00;98848.17;109413;1251;59016;-73
2023/08/31 01:32:12;;;;;;;10.20;4.60;;;;;;;20.68;100.00;98846.71;109404;1251;74644;-74
2023/08/31 01:34:40;;;;;;;14.20;4.20;;;;;;;20.66;100.00;98843.32;109446;1251;68989;-74
2023/08/31 01:37:13;;;;;;;10.20;4.00;;;;;;;20.65;100.00;98843.60;109392;1253;72425;-73
2023/08/31 01:39:46;;;;;;;10.90;4.30;;;;;;;20.63;100.00;98835.41;109412;1252;60033;-73
2023/08/31 01:42:15;;;;;;;11.20;4.00;;;;;;;20.60;100.00;98832.94;109409;1251;58907;-74
2023/08/31 01:44:43;;;;;;;9.50;4.30;;;;;;;20.59;100.00;98834.05;109247;1253;74702;-74
2023/08/31 01:47:10;;;;;;;11.40;3.80;;;;;;;20.58;100.00;98834.73;109388;1251;71117;-74
2023/08/31 01:49:38;;;;;;;13.90;4.00;;;;;;;20.57;100.00;98837.45;109153;1252;72458;-73
2023/08/31 01:52:06;;;;;;;11.60;3.70;;;;;;;20.56;100.00;98840.39;109447;1251;60070;-73
2023/08/31 01:54:33;;;;;;;9.30;3.80;;;;;;;20.55;100.00;98840.11;109389;1251;60075;-74
2023/08/31 01:57:02;;;;;;;10.50;3.90;;;;;;;20.55;100.00;98833.05;109402;1251;74834;-73
2023/08/31 01:59:30;;;;;;;8.20;4.00;;;;;;;20.55;100.00;98834.45;109355;1251;70801;-73
2023/08/31 02:01:58;;;;;;;11.70;3.50;;;;;;;20.55;100.00;98835.86;109341;1251;71386;-74
2023/08/31 02:04:25;;;;;;;7.90;3.60;;;;;;;20.55;100.00;98835.89;109340;1252;60072;-74
2023/08/31 02:06:53;;;;;;;9.30;4.00;;;;;;;20.54;100.00;98839.69;109398;1251;59369;-74
2023/08/31 02:09:21;;;;;;;14.30;4.00;;;;;;;20.53;100.00;98843.51;109440;1251;75527;-74
2023/08/31 02:11:48;;;;;;;7.90;3.70;;;;;;;20.53;100.00;98846.60;109454;1252;69681;-73
2023/08/31 02:14:16;;;;;;;13.60;3.80;;;;;;;20.51;100.00;98848.84;109409;1251;71127;-74
2023/08/31 02:16:43;;;;;;;7.10;3.50;;;;;;;20.49;100.00;98856.99;109395;1251;60127;-74
2023/08/31 02:19:10;;;;;;;12.50;3.20;;;;;;;20.48;100.00;98855.73;109429;1251;60089;-73
2023/08/31 02:21:39;;;;;;;8.00;3.60;;;;;;;20.46;100.00;98855.57;109463;1251;73408;-74
2023/08/31 02:24:07;;;;;;;10.70;3.30;;;;;;;20.45;100.00;98860.83;109410;1251;70777;-73
2023/08/31 02:26:37;;;;;;;5.50;3.30;;;;;;;20.44;100.00;98861.64;109420;1251;71411;-73
2023/08/31 02:29:04;;;;;;;12.10;3.80;;;;;;;20.43;100.00;98862.95;109354;1251;60012;-73
2023/08/31 02:31:33;;;;;;;6.50;3.20;;;;;;;20.42;100.00;98863.39;109391;1251;59990;-74
2023/08/31 02:34:00;;;;;;;8.30;3.80;;;;;;;20.40;100.00;98860.64;109413;1251;73407;-73
2023/08/31 02:36:28;;;;;;;11.90;3.70;;;;;;;20.39;100.00;98859.32;109383;1251;70906;-74
2023/08/31 02:38:56;;;;;;;9.70;3.80;;;;;;;20.39;100.00;98862.91;109359;1253;70150;-74
2023/08/31 02:41:24;;;;;;;8.00;3.50;;;;;;;20.36;100.00;98865.94;109413;1251;59999;-74
2023/08/31 02:43:51;;;;;;;12.60;4.00;;;;;;;20.36;100.00;98869.35;109473;1251;60002;-74
2023/08/31 02:46:19;;;;;;;13.70;3.50;;;;;;;20.33;100.00;98871.18;109438;1251;74745;-74
2023/08/31 02:48:47;;;;;;;10.90;3.70;;;;;;;20.31;100.00;98867.28;109407;1251;68839;-74
2023/08/31 02:51:15;;;;;;;8.20;3.80;;;;;;;20.29;100.00;98862.69;109416;1253;72454;-74
2023/08/31 02:53:42;;;;;;;7.30;3.50;;;;;;;20.27;100.00;98858.04;109347;1253;59998;-73
2023/08/31 02:56:10;;;;;;;8.70;3.10;;;;;;;20.26;100.00;98857.77;109410;1251;60160;-74
2023/08/31 02:58:38;;;;;;;8.30;3.40;;;;;;;20.25;100.00;98863.20;109440;1253;73647;-74
2023/08/31 03:01:11;;;;;;;13.50;4.00;;;;;;;20.23;100.00;98873.12;109356;1251;69512;-73
2023/08/31 03:03:41;;;;;;;14.70;3.70;;;;;;;20.23;100.00;98877.76;109350;1251;71085;-73
2023/08/31 03:06:09;;;;;;;12.50;3.70;;;;;;;20.22;100.00;98873.08;109364;1251;60518;-73
2023/08/31 03:08:37;;;;;;;12.40;3.60;;;;;;;20.20;100.00;98868.11;109347;1251;59967;-74
2023/08/31 03:11:04;;;;;;;13.90;3.50;;;;;;;20.17;100.00;98863.52;109451;1253;74689;-74
2023/08/31 03:13:32;;;;;;;6.40;3.10;;;;;;;20.16;100.00;98868.28;109427;1251;70832;-73
2023/08/31 03:16:00;;;;;;;11.30;3.90;;;;;;;20.14;100.00;98870.33;109378;1251;71165;-74
2023/08/31 03:18:27;;;;;;;14.90;3.80;;;;;;;20.14;100.00;98868.06;109395;1253;60052;-74
2023/08/31 03:20:56;;;;;;;14.00;3.70;;;;;;;20.12;100.00;98868.06;109214;1251;59972;-73
2023/08/31 03:23:28;;;;;;;12.70;3.60;;;;;;;20.11;100.00;98870.59;109351;1251;73341;-74
2023/08/31 03:25:57;;;;;;;6.50;3.90;;;;;;;20.11;100.00;98872.55;109154;1251;70784;-73
2023/08/31 03:28:26;;;;;;;14.40;3.40;;;;;;;20.11;100.00;98862.66;109410;1251;72484;-73
2023/08/31 03:30:55;;;;;;;15.20;4.20;;;;;;;20.10;100.00;98859.64;109355;1257;59010;-73
2023/08/31 03:33:23;;;;;;;8.40;3.20;;;;;;;20.08;100.00;98853.98;109312;1251;59201;-74
2023/08/31 03:35:50;;;;;;;13.40;4.20;;;;;;;20.07;100.00;98855.65;109374;1253;72964;-73
2023/08/31 03:38:18;;;;;;;8.50;3.20;;;;;;;20.07;100.00;98853.39;109360;1251;71114;-74
2023/08/31 03:40:55;;;;;;;11.70;3.40;;;;;;;20.07;100.00;98859.39;109316;1251;72450;-73
2023/08/31 03:43:22;;;;;;;8.00;4.30;;;;;;;20.08;100.00;98860.41;109391;1255;59334;-74
2023/08/31 03:45:55;;;;;;;12.70;4.00;;;;;;;20.09;100.00;98857.98;109339;1254;60055;-73
2023/08/31 03:48:24;;;;;;;9.10;3.60;;;;;;;20.10;100.00;98862.73;108642;1253;1003081;-72
2023/08/31 03:50:54;;;;;;;5.90;3.60;;;;;;;20.10;100.00;98869.48;109348;1253;69650;-73
2023/08/31 03:53:22;;;;;;;8.60;3.40;;;;;;;20.11;100.00;98868.88;109403;1251;72420;-73
2023/08/31 03:55:52;;;;;;;11.10;3.40;;;;;;;20.12;100.00;98861.52;109359;1253;60003;-73
2023/08/31 03:58:20;;;;;;;11.00;3.40;;;;;;;20.12;100.00;98866.57;109420;1256;58977;-74
2023/08/31 04:00:51;;;;;;;17.60;3.90;;;;;;;20.13;100.00;98867.96;109351;1251;74653;-74
2023/08/31 04:03:19;;;;;;;12.30;3.60;;;;;;;20.13;100.00;98874.52;109373;1250;70420;-73
2023/08/31 04:05:47;;;;;;;14.90;3.70;;;;;;;20.12;100.00;98875.20;109325;1251;71266;-74
2023/08/31 04:08:15;;;;;;;6.70;3.80;;;;;;;20.11;100.00;98872.61;109397;1251;59364;-73
2023/08/31 04:10:42;;;;;;;6.30;3.20;;;;;;;20.10;100.00;98871.39;109412;1251;59325;-73
2023/08/31 04:13:10;;;;;;;8.00;3.30;;;;;;;20.08;100.00;98872.31;109372;1251;75611;-73
2023/08/31 04:15:38;;;;;;;7.40;3.50;;;;;;;20.08;100.00;98874.81;109445;1251;70956;-74
2023/08/31 04:18:06;;;;;;;10.30;3.50;;;;;;;20.08;100.00;98874.11;109412;1251;71361;-74
2023/08/31 04:20:34;;;;;;;8.50;3.70;;;;;;;20.08;100.00;98875.14;109402;1251;59144;-73
2023/08/31 04:23:01;;;;;;;10.90;3.50;;;;;;;20.07;100.00;98872.89;109416;1251;59578;-73
2023/08/31 04:25:31;;;;;;;12.50;4.00;;;;;;;20.07;100.00;98876.67;109393;1251;74721;-73
2023/08/31 04:27:59;;;;;;;5.80;3.50;;;;;;;20.05;100.00;98879.45;109426;1251;69537;-74
2023/08/31 04:30:26;;;;;;;6.90;3.60;;;;;;;20.03;100.00;98876.74;109441;1251;72722;-74
2023/08/31 04:32:54;;;;;;;8.60;3.60;;;;;;;20.04;100.00;98878.49;109409;1251;59126;-73
2023/08/31 04:35:21;;;;;;;4.50;3.10;;;;;;;20.04;100.00;98881.48;109405;1251;60063;-74
2023/08/31 04:37:49;;;;;;;12.90;3.80;;;;;;;20.06;100.00;98883.71;109436;1251;74651;-73
2023/08/31 04:40:16;;;;;;;194.10;100.20;;;;;;;20.04;100.00;98887.91;109419;1251;71118;-73
2023/08/31 04:42:44;;;;;;;302.20;145.20;;;;;;;20.02;100.00;98887.34;109406;1254;71780;-74
2023/08/31 04:45:12;;;;;;;286.10;141.50;;;;;;;20.04;100.00;98888.27;109383;1255;60201;-73
2023/08/31 04:47:39;;;;;;;194.70;86.40;;;;;;;20.08;100.00;98891.14;109440;1251;60004;-74
2023/08/31 04:50:07;;;;;;;42.30;21.90;;;;;;;20.12;100.00;98889.54;109420;1251;73433;-73
2023/08/31 04:52:34;;;;;;;23.90;8.30;;;;;;;20.16;100.00;98891.77;109423;1251;70797;-74
2023/08/31 04:55:07;;;;;;;21.10;7.60;;;;;;;20.19;100.00;98889.86;109393;1251;71295;-73
2023/08/31 04:57:35;;;;;;;14.80;7.10;;;;;;;20.22;100.00;98883.70;109447;1251;59261;-74
2023/08/31 05:00:03;;;;;;;9.60;4.40;;;;;;;20.25;100.00;98885.98;109454;1251;59989;-74
2023/08/31 05:02:30;;;;;;;27.70;11.00;;;;;;;20.29;100.00;98887.27;109412;1251;73796;-74
2023/08/31 05:04:58;;;;;;;21.50;8.50;;;;;;;20.33;100.00;98892.27;109424;1251;70757;-74
2023/08/31 05:07:25;;;;;;;15.30;5.70;;;;;;;20.37;100.00;98900.80;109337;1251;72676;-73
2023/08/31 05:09:53;;;;;;;18.10;5.60;;;;;;;20.44;100.00;98899.20;109390;1251;60252;-73
2023/08/31 05:12:20;;;;;;;8.20;3.30;;;;;;;20.48;100.00;98906.33;109412;1251;58979;-73
2023/08/31 05:14:48;;;;;;;14.20;5.40;;;;;;;20.52;100.00;98900.30;109425;1251;75074;-74
2023/08/31 05:17:15;;;;;;;14.10;4.30;;;;;;;20.57;100.00;98908.54;109427;1251;71607;-73
2023/08/31 05:19:43;;;;;;;11.30;3.30;;;;;;;20.62;100.00;98908.34;109370;1251;71406;-74
2023/08/31 05:22:10;;;;;;;21.10;4.00;;;;;;;20.66;100.00;98910.70;109408;1251;60108;-73
2023/08/31 05:24:37;;;;;;;11.90;4.60;;;;;;;20.70;100.00;98912.23;109382;1251;60509;-73
2023/08/31 05:27:05;;;;;;;12.70;3.70;;;;;;;20.76;100.00;98910.50;109378;1251;74798;-73
2023/08/31 05:29:33;;;;;;;37.60;17.10;;;;;;;20.81;100.00;98918.01;109448;1251;70806;-73
2023/08/31 05:32:00;;;;;;;24.20;10.20;;;;;;;20.83;100.00;98925.66;109398;1254;71376;-74
2023/08/31 05:34:28;;;;;;;17.10;6.00;;;;;;;20.84;100.00;98932.66;109425;1251;59432;-73
2023/08/31 05:36:55;;;;;;;15.60;4.60;;;;;;;20.86;100.00;98932.36;109419;1254;59265;-73
2023/08/31 05:39:23;;;;;;;16.20;6.60;;;;;;;20.88;100.00;98933.70;109442;1251;73448;-73
2023/08/31 05:41:50;;;;;;;10.40;3.80;;;;;;;20.92;100.00;98931.05;109398;1255;71155;-73
2023/08/31 05:44:18;;;;;;;175.30;97.90;;;;;;;20.95;100.00;98937.54;109427;1251;72612;-73
2023/08/31 05:46:45;;;;;;;72.70;38.10;;;;;;;21.02;100.00;98939.30;109370;1255;60099;-74
2023/08/31 05:49:13;;;;;;;59.00;25.90;;;;;;;21.10;100.00;98943.94;109446;1251;59417;-73
2023/08/31 05:51:40;;;;;;;30.10;14.70;;;;;;;21.20;100.00;98943.46;109389;1255;74217;-73
2023/08/31 05:54:11;;;;;;;15.60;5.80;;;;;;;21.29;100.00;98941.53;109473;1251;70176;-73
2023/08/31 05:56:39;;;;;;;12.10;4.30;;;;;;;21.41;100.00;98938.21;109373;1251;71676;-73
2023/08/31 05:59:06;;;;;;;7.50;3.10;;;;;;;21.52;100.00;98938.34;108636;1251;1002420;-75
2023/08/31 06:01:35;;;;;;;12.70;3.60;;;;;;;21.63;100.00;98936.64;109412;1251;60064;-74
2023/08/31 06:04:03;;;;;;;13.30;3.50;;;;;;;21.74;100.00;98940.13;109365;1251;75155;-73
2023/08/31 06:06:32;;;;;;;17.80;6.00;;;;;;;21.84;100.00;98938.27;109362;1251;71291;-74
2023/08/31 06:09:00;;;;;;;15.70;4.40;;;;;;;21.95;100.00;98941.08;109377;1251;71857;-74
2023/08/31 06:11:27;;;;;;;10.20;3.70;;;;;;;22.05;100.00;98939.65;109399;1251;59041;-72
2023/08/31 06:13:55;;;;;;;15.50;3.90;;;;;;;22.13;100.00;98939.56;109390;1251;60266;-73
2023/08/31 06:16:23;;;;;;;16.10;6.90;;;;;;;22.22;100.00;98930.73;109394;1251;74671;-74
2023/08/31 06:18:51;;;;;;;27.60;10.20;;;;;;;22.31;100.00;98932.13;109428;1251;71287;-73
2023/08/31 06:21:19;;;;;;;33.70;15.20;;;;;;;22.36;100.00;98935.55;109421;1251;72937;-74
2023/08/31 06:23:46;;;;;;;31.10;15.90;;;;;;;22.44;100.00;98941.95;109358;1251;59525;-73
2023/08/31 06:26:13;;;;;;;79.60;35.80;;;;;;;22.50;100.00;98944.79;109407;1251;58923;-73
2023/08/31 06:28:41;;;;;;;257.90;113.40;;;;;;;22.55;100.00;98947.68;109390;1251;74685;-74
2023/08/31 06:31:08;;;;;;;136.10;55.70;;;;;;;22.58;100.00;98948.30;109390;1251;69811;-74
2023/08/31 06:33:36;;;;;;;48.30;20.90;;;;;;;22.63;100.00;98948.53;109385;1251;71368;-74
2023/08/31 06:36:03;;;;;;;21.50;8.40;;;;;;;22.67;100.00;98947.30;109355;1254;59091;-73
2023/08/31 06:38:31;;;;;;;11.80;4.90;;;;;;;22.74;100.00;98948.27;109439;1251;59022;-73
2023/08/31 06:40:59;;;;;;;13.60;3.80;;;;;;;22.84;100.00;98949.28;109433;1254;73428;-73
2023/08/31 06:43:26;;;;;;;11.10;3.40;;;;;;;22.96;100.00;98952.10;109421;1251;71104;-73
2023/08/31 06:45:54;;;;;;;11.70;3.50;;;;;;;23.08;100.00;98951.93;109383;1251;74041;-73
2023/08/31 06:48:23;;;;;;;11.30;3.50;;;;;;;23.16;100.00;98952.35;109399;1251;60053;-72
2023/08/31 06:50:51;;;;;;;7.90;3.20;;;;;;;23.22;100.00;98952.55;109396;1251;60018;-74
2023/08/31 06:53:18;;;;;;;6.80;3.00;;;;;;;23.23;100.00;98956.55;109401;1251;75046;-74
2023/08/31 06:55:46;;;;;;;15.40;3.40;;;;;;;23.25;100.00;98960.34;109432;1251;71406;-74
2023/08/31 06:58:13;;;;;;;7.10;3.00;;;;;;;23.29;100.00;98952.91;109377;1251;72053;-74
2023/08/31 07:00:41;;;;;;;10.80;3.60;;;;;;;23.38;100.00;98949.93;109394;1251;59996;-73
2023/08/31 07:03:08;;;;;;;6.50;3.10;;;;;;;23.48;100.00;98949.27;109453;1251;60008;-73
2023/08/31 07:05:37;;;;;;;13.50;3.60;;;;;;;23.59;100.00;98950.67;109415;1251;73384;-74
2023/08/31 07:08:04;;;;;;;9.90;3.10;;;;;;;23.71;100.00;98950.95;109296;1251;70165;-73
2023/08/31 07:10:32;;;;;;;15.00;3.80;;;;;;;23.84;100.00;98951.75;109377;1251;71466;-74
2023/08/31 07:13:00;;;;;;;14.50;3.40;;;;;;;23.92;100.00;98955.57;107897;1251;1002289;-74
2023/08/31 07:15:27;;;;;;;14.00;2.90;;;;;;;23.99;100.00;98954.52;109401;1251;59379;-74
2023/08/31 07:17:57;;;;;;;13.50;3.20;;;;;;;24.06;100.00;98957.59;109427;1251;64429;-74
2023/08/31 07:20:25;;;;;;;8.10;3.10;;;;;;;24.14;100.00;98957.36;109376;1251;71274;-74
2023/08/31 07:22:54;;;;;;;10.20;2.90;;;;;;;24.22;100.00;98955.65;109415;1251;72703;-74
2023/08/31 07:25:22;;;;;;;9.60;3.40;;;;;;;24.30;100.00;98958.95;109434;1251;61040;-74
2023/08/31 07:27:49;;;;;;;9.40;3.20;;;;;;;24.38;100.00;98963.18;109368;1251;60005;-74
2023/08/31 07:30:17;;;;;;;17.50;4.60;;;;;;;24.45;100.00;98964.09;109389;1251;73781;-74
2023/08/31 07:32:44;;;;;;;13.90;3.70;;;;;;;24.54;100.00;98963.79;109378;1251;70779;-74
2023/08/31 07:35:12;;;;;;;8.60;3.60;;;;;;;24.62;100.00;98963.81;109405;1251;71378;-73
2023/08/31 07:37:39;;;;;;;13.90;4.00;;;;;;;24.69;100.00;98959.48;109415;1251;59030;-74
2023/08/31 07:40:09;;;;;;;10.70;3.50;;;;;;;24.75;100.00;98962.28;109396;1251;60325;-74
2023/08/31 07:42:37;;;;;;;10.90;3.10;;;;;;;24.82;100.00;98965.02;109410;1251;75098;-73
2023/08/31 07:45:05;;;;;;;13.00;3.50;;;;;;;24.90;100.00;98954.75;109456;1251;70812;-74
2023/08/31 07:47:33;;;;;;;11.50;3.70;;;;;;;24.98;100.00;98953.89;109389;1251;71394;-75
2023/08/31 07:50:02;;;;;;;13.40;4.20;;;;;;;25.09;100.00;98955.05;109428;1251;59156;-74
2023/08/31 07:52:29;;;;;;;11.80;3.50;;;;;;;25.19;100.00;98957.53;109320;1251;60042;-75
2023/08/31 07:54:57;;;;;;;12.70;3.20;;;;;;;25.27;100.00;98960.42;109383;1251;74650;-74
2023/08/31 07:57:24;;;;;;;10.50;2.80;;;;;;;25.34;100.00;98962.42;109406;1250;69810;-74
2023/08/31 07:59:52;;;;;;;11.40;3.10;;;;;;;25.44;100.00;98969.73;109370;1251;62428;-74
2023/08/31 08:02:19;;;;;;;15.70;3.20;;;;;;;25.57;100.00;98969.95;109387;1251;59951;-74
2023/08/31 08:04:47;;;;;;;9.40;2.50;;;;;;;25.66;100.00;98970.29;109415;1251;58933;-74
2023/08/31 08:07:14;;;;;;;8.90;3.10;;;;;;;25.69;100.00;98972.73;109391;1251;74648;-74
2023/08/31 08:09:42;;;;;;;10.90;3.00;;;;;;;25.69;100.00;98969.12;109440;1251;70914;-74
2023/08/31 08:12:10;;;;;;;17.20;4.00;;;;;;;25.74;100.00;98964.38;109433;1251;71797;-74
2023/08/31 08:14:37;;;;;;;14.10;3.50;;;;;;;25.74;100.00;98959.70;109389;1251;58928;-74
2023/08/31 08:17:05;;;;;;;14.60;2.80;;;;;;;25.79;100.00;98956.65;109428;1251;60015;-74
2023/08/31 08:19:32;;;;;;;12.90;2.80;;;;;;;25.90;100.00;98950.61;109377;1252;74688;-74
2023/08/31 08:22:00;;;;;;;13.70;3.30;;;;;;;26.04;100.00;98949.98;109429;1251;71665;-74
2023/08/31 08:24:27;;;;;;;13.70;3.10;;;;;;;26.18;100.00;98950.77;109404;1251;73210;-74
2023/08/31 08:26:55;;;;;;;18.00;3.10;;;;;;;26.33;100.00;98947.27;109354;1251;59947;-74
2023/08/31 08:29:22;;;;;;;7.80;3.10;;;;;;;26.49;100.00;98947.14;109434;1251;60047;-75
2023/08/31 08:31:50;;;;;;;8.20;3.00;;;;;;;26.62;100.00;98946.98;109394;1251;65730;-74
2023/08/31 08:34:18;;;;;;;10.40;3.00;;;;;;;26.76;100.00;98944.08;109431;1251;71123;-74
2023/08/31 08:36:45;;;;;;;9.60;2.80;;;;;;;26.87;100.00;98937.11;109413;1251;70989;-75
2023/08/31 08:39:13;;;;;;;9.30;2.70;;;;;;;26.96;100.00;98942.15;109392;1251;60109;-74
2023/08/31 08:41:40;;;;;;;9.50;2.80;;;;;;;27.08;100.00;98941.75;109417;1251;60067;-75
2023/08/31 08:44:08;;;;;;;13.50;3.20;;;;;;;27.19;100.00;98939.91;109389;1251;74078;-75
2023/08/31 08:46:36;;;;;;;7.50;3.10;;;;;;;27.31;100.00;98941.48;109388;1251;69122;-75
2023/08/31 08:49:03;;;;;;;12.80;3.20;;;;;;;27.42;100.00;98940.63;109339;1251;71784;-74
2023/08/31 08:51:31;;;;;;;12.20;3.00;;;;;;;27.52;100.00;98937.30;109408;1252;60044;-74
2023/08/31 08:54:00;;;;;;;12.90;3.50;;;;;;;27.63;100.00;98938.20;109439;1251;59164;-74
2023/08/31 08:56:27;;;;;;;15.90;2.80;;;;;;;27.73;100.00;98940.46;109430;1251;74569;-74
2023/08/31 08:58:55;;;;;;;10.70;2.80;;;;;;;27.82;100.00;98941.80;109392;1251;70933;-74
2023/08/31 09:01:23;;;;;;;18.50;2.80;;;;;;;27.90;100.00;98933.73;109416;1251;72703;-75
2023/08/31 09:03:51;;;;;;;8.10;2.80;;;;;;;27.94;100.00;98933.78;109406;1252;60047;-74
2023/08/31 09:06:20;;;;;;;11.40;2.80;;;;;;;27.99;100.00;98938.83;109464;1251;59066;-76
2023/08/31 09:08:55;;;;;;;19.90;2.90;;;;;;;28.00;100.00;98943.11;109446;1251;74678;-75
2023/08/31 09:11:24;;;;;;;4.20;2.30;;;;;;;28.03;100.00;98944.46;109418;1250;70160;-74
2023/08/31 09:13:51;;;;;;;11.70;3.10;;;;;;;28.04;100.00;98943.42;109399;1251;72751;-74
2023/08/31 09:16:29;;;;;;;12.70;3.20;;;;;;;28.07;100.00;98942.89;109291;1253;59296;-75
2023/08/31 09:18:58;;;;;;;15.00;2.60;;;;;;;28.10;100.00;98941.01;109380;1251;60492;-74
2023/08/31 09:21:40;;;;;;;15.90;2.70;;;;;;;28.19;100.00;98945.68;109408;1250;74907;-75
2023/08/31 09:24:10;;;;;;;9.80;2.60;;;;;;;28.26;95.43;98948.77;109460;1250;61650;-74
2023/08/31 09:26:48;;;;;;;13.00;2.90;;;;;;;28.31;96.24;98942.23;109442;1251;63711;-75
2023/08/31 09:29:16;;;;;;;6.60;3.00;;;;;;;28.40;98.20;98942.77;109395;1251;59073;-74
2023/08/31 09:31:44;;;;;;;13.60;3.20;;;;;;;28.49;98.19;98942.17;109450;1251;59385;-75
2023/08/31 09:34:13;;;;;;;16.90;2.60;;;;;;;28.59;97.71;98940.57;109437;1251;65872;-75
2023/08/31 09:36:41;;;;;;;10.40;2.50;;;;;;;28.69;96.55;98943.15;109401;1251;62267;-74
2023/08/31 09:39:09;;;;;;;7.20;2.10;;;;;;;28.76;92.35;98944.37;109338;1251;62601;-76
2023/08/31 09:41:53;;;;;;;15.80;2.60;;;;;;;28.73;88.59;98945.00;109408;1251;59137;-74
2023/08/31 09:44:21;;;;;;;6.10;2.50;;;;;;;28.67;90.27;98949.56;109414;1251;59299;-74
2023/08/31 09:46:48;;;;;;;15.10;2.60;;;;;;;28.64;89.32;98951.21;109397;1251;73334;-74
2023/08/31 09:49:17;;;;;;;4.80;2.10;;;;;;;28.61;89.67;98950.98;109418;1251;63351;-75
2023/08/31 09:51:46;;;;;;;8.10;2.30;;;;;;;28.58;90.88;98951.51;109375;1251;62413;-75
2023/08/31 09:54:14;;;;;;;9.10;2.80;;;;;;;28.56;93.71;98955.71;109436;1251;59412;-74
2023/08/31 09:56:42;;;;;;;7.70;2.50;;;;;;;28.57;96.96;98955.85;109453;1251;59033;-75
2023/08/31 09:59:10;;;;;;;6.90;2.60;;;;;;;28.59;93.35;98956.48;109419;1251;65727;-75
2023/08/31 10:01:37;;;;;;;12.00;2.50;;;;;;;28.60;94.32;98958.17;109439;1251;62144;-75
2023/08/31 10:04:07;;;;;;;7.50;2.40;;;;;;;28.60;95.14;98962.11;109375;1251;72808;-74
2023/08/31 10:06:36;;;;;;;12.10;2.70;;;;;;;28.62;95.35;98963.48;109273;1253;59367;-74
2023/08/31 10:09:03;;;;;;;10.00;2.80;;;;;;;28.64;91.50;98963.92;109440;1251;58856;-74
2023/08/31 10:11:31;;;;;;;10.50;2.50;;;;;;;28.68;88.13;98962.38;109409;1250;64445;-75
2023/08/31 10:13:59;;;;;;;12.70;2.80;;;;;;;28.73;90.44;98962.78;109424;1251;70458;-74
2023/08/31 10:16:27;;;;;;;5.70;2.60;;;;;;;28.74;93.24;98959.15;109385;1253;62440;-75
2023/08/31 10:18:55;;;;;;;19.80;2.60;;;;;;;28.76;92.50;98958.61;109395;1251;59000;-75
2023/08/31 10:21:23;;;;;;;12.40;2.30;;;;;;;28.78;89.70;98961.98;109389;1251;59227;-75
2023/08/31 10:23:50;;;;;;;7.10;1.90;;;;;;;28.80;84.21;98959.23;109447;1251;64508;-74
2023/08/31 10:26:30;;;;;;;11.20;3.00;;;;;;;28.84;82.47;98958.16;109421;1251;62641;-73
2023/08/31 10:28:58;;;;;;;7.90;2.50;;;;;;;28.91;80.15;98958.80;109404;1251;71404;-74
2023/08/31 10:31:30;;;;;;;13.40;3.00;;;;;;;28.96;78.79;98957.34;109408;1252;59068;-74
2023/08/31 10:34:03;;;;;;;7.10;3.00;;;;;;;29.00;84.16;98956.94;109438;1251;59090;-75
2023/08/31 10:36:57;;;;;;;7.20;2.40;;;;;;;29.04;80.92;98954.80;109387;1251;64518;-73
2023/08/31 10:39:39;;;;;;;8.00;2.20;;;;;;;29.10;81.26;98952.46;109441;1251;60949;-74
2023/08/31 10:42:07;;;;;;;13.00;2.80;;;;;;;29.16;85.18;98953.91;109416;1251;63850;-75
2023/08/31 10:44:35;;;;;;;15.40;2.40;;;;;;;29.20;79.04;98949.14;109398;1251;59032;-75
2023/08/31 10:47:05;;;;;;;10.20;3.00;;;;;;;29.21;80.55;98943.58;109421;1251;59174;-75
2023/08/31 10:49:33;;;;;;;8.70;2.80;;;;;;;29.24;80.65;98941.36;109421;1251;65686;-74
2023/08/31 10:52:19;;;;;;;6.50;2.50;;;;;;;29.27;80.23;98940.52;109412;1251;60893;-74
2023/08/31 10:54:54;;;;;;;5.50;2.40;;;;;;;29.29;78.20;98944.29;109401;1251;63135;-75
2023/08/31 10:57:29;;;;;;;14.90;2.30;;;;;;;29.28;73.34;98942.16;109387;1251;59018;-74
2023/08/31 10:59:58;;;;;;;11.80;2.90;;;;;;;29.28;78.53;98944.52;109426;1251;58959;-74
2023/08/31 11:02:38;;;;;;;10.70;2.40;;;;;;;29.30;74.26;98948.72;109407;1251;65979;-74
2023/08/31 11:05:16;;;;;;;8.60;2.40;;;;;;;29.26;68.63;98947.27;109356;1251;62174;-74
2023/08/31 11:07:48;;;;;;;5.80;2.00;;;;;;;29.25;67.71;98944.58;109407;1251;62533;-74
2023/08/31 11:10:19;;;;;;;13.20;2.60;;;;;;;29.26;65.73;98942.77;109396;1251;59322;-75
2023/08/31 11:12:52;;;;;;;12.60;2.50;;;;;;;29.29;67.54;98939.79;109379;1250;60167;-75
2023/08/31 11:15:21;;;;;;;22.30;4.40;;;;;;;29.30;65.90;98935.68;109430;1250;64437;-75
2023/08/31 11:17:52;;;;;;;7.20;2.50;;;;;;;29.26;65.16;98935.72;109430;1251;62403;-74
2023/08/31 11:20:21;;;;;;;8.50;2.60;;;;;;;29.22;63.10;98934.28;109339;1251;63809;-75